sensor_id;sensor_type;location;lat;lon;timestamp;temperature;humidity
52555;DHT22;38455;52.710;6.502;2024-01-25T00:00:29;7.80;99.90
52555;DHT22;38455;52.710;6.502;2024-01-25T00:02:54;7.80;99.90
52555;DHT22;38455;52.710;6.502;2024-01-25T00:05:20;7.70;99.90
52555;DHT22;38455;52.710;6.502;2024-01-25T00:07:49;7.60;99.90
52555;DHT22;38455;52.710;6.502;2024-01-25T00:10:16;7.50;99.90
52555;DHT22;38455;52.710;6.502;2024-01-25T00:12:42;7.40;99.90
52555;DHT22;38455;52.710;6.502;2024-01-25T00:15:08;7.30;99.90
52555;DHT22;38455;52.710;6.502;2024-01-25T00:17:34;7.30;99.90
52555;DHT22;38455;52.710;6.502;2024-01-25T00:20:00;7.30;99.90
52555;DHT22;38455;52.710;6.502;2024-01-25T00:22:26;7.10;99.90
52555;DHT22;38455;52.710;6.502;2024-01-25T00:24:51;7.10;99.90
52555;DHT22;38455;52.710;6.502;2024-01-25T00:27:17;7.00;99.90
52555;DHT22;38455;52.710;6.502;2024-01-25T00:29:42;7.00;99.90
52555;DHT22;38455;52.710;6.502;2024-01-25T00:32:09;6.90;99.90
52555;DHT22;38455;52.710;6.502;2024-01-25T00:34:35;6.90;99.90
52555;DHT22;38455;52.710;6.502;2024-01-25T00:37:01;6.90;99.90
52555;DHT22;38455;52.710;6.502;2024-01-25T00:39:27;6.90;99.90
52555;DHT22;38455;52.710;6.502;2024-01-25T00:41:57;6.90;99.90
52555;DHT22;38455;52.710;6.502;2024-01-25T00:44:24;6.80;99.90
52555;DHT22;38455;52.710;6.502;2024-01-25T00:46:50;6.80;99.90
52555;DHT22;38455;52.710;6.502;2024-01-25T00:49:18;6.70;99.90
52555;DHT22;38455;52.710;6.502;2024-01-25T00:51:47;6.60;99.90
52555;DHT22;38455;52.710;6.502;2024-01-25T00:54:14;6.60;99.90
52555;DHT22;38455;52.710;6.502;2024-01-25T00:56:40;6.50;99.90
52555;DHT22;38455;52.710;6.502;2024-01-25T00:59:06;6.50;99.90
52555;DHT22;38455;52.710;6.502;2024-01-25T01:01:32;6.40;99.90
52555;DHT22;38455;52.710;6.502;2024-01-25T01:03:58;6.40;99.90
52555;DHT22;38455;52.710;6.502;2024-01-25T01:06:25;6.30;99.90
52555;DHT22;38455;52.710;6.502;2024-01-25T01:08:51;6.30;99.90
52555;DHT22;38455;52.710;6.502;2024-01-25T01:11:17;6.20;99.90
52555;DHT22;38455;52.710;6.502;2024-01-25T01:13:42;6.20;99.90
52555;DHT22;38455;52.710;6.502;2024-01-25T01:16:08;6.10;99.90
52555;DHT22;38455;52.710;6.502;2024-01-25T01:18:34;6.00;99.90
52555;DHT22;38455;52.710;6.502;2024-01-25T01:21:00;6.00;99.90
52555;DHT22;38455;52.710;6.502;2024-01-25T01:23:25;6.10;99.90
52555;DHT22;38455;52.710;6.502;2024-01-25T01:25:51;6.30;99.90
52555;DHT22;38455;52.710;6.502;2024-01-25T01:28:17;6.30;99.90
52555;DHT22;38455;52.710;6.502;2024-01-25T01:30:42;6.40;99.90
52555;DHT22;38455;52.710;6.502;2024-01-25T01:33:08;6.40;99.90
52555;DHT22;38455;52.710;6.502;2024-01-25T01:35:34;6.40;99.90
52555;DHT22;38455;52.710;6.502;2024-01-25T01:38:00;6.30;99.90
52555;DHT22;38455;52.710;6.502;2024-01-25T01:40:25;6.30;99.90
52555;DHT22;38455;52.710;6.502;2024-01-25T01:42:51;6.20;99.90
52555;DHT22;38455;52.710;6.502;2024-01-25T01:45:17;6.10;99.90
52555;DHT22;38455;52.710;6.502;2024-01-25T01:47:43;6.00;99.90
52555;DHT22;38455;52.710;6.502;2024-01-25T01:50:09;6.00;99.90
52555;DHT22;38455;52.710;6.502;2024-01-25T01:52:35;5.90;99.90
52555;DHT22;38455;52.710;6.502;2024-01-25T01:55:02;5.80;99.90
52555;DHT22;38455;52.710;6.502;2024-01-25T01:57:28;5.80;99.90
52555;DHT22;38455;52.710;6.502;2024-01-25T01:59:55;5.70;99.90
52555;DHT22;38455;52.710;6.502;2024-01-25T02:02:22;5.70;99.90
52555;DHT22;38455;52.710;6.502;2024-01-25T02:04:49;5.70;99.90
52555;DHT22;38455;52.710;6.502;2024-01-25T02:07:14;5.70;99.90
52555;DHT22;38455;52.710;6.502;2024-01-25T02:09:40;5.70;99.90
52555;DHT22;38455;52.710;6.502;2024-01-25T02:12:06;5.60;99.90
52555;DHT22;38455;52.710;6.502;2024-01-25T02:14:32;5.60;99.90
52555;DHT22;38455;52.710;6.502;2024-01-25T02:16:58;5.60;99.90
52555;DHT22;38455;52.710;6.502;2024-01-25T02:19:23;5.60;99.90
52555;DHT22;38455;52.710;6.502;2024-01-25T02:21:51;5.60;99.90
52555;DHT22;38455;52.710;6.502;2024-01-25T02:24:19;5.60;99.90
52555;DHT22;38455;52.710;6.502;2024-01-25T02:26:45;5.50;99.90
52555;DHT22;38455;52.710;6.502;2024-01-25T02:29:10;5.50;99.90
52555;DHT22;38455;52.710;6.502;2024-01-25T02:31:36;5.50;99.90
52555;DHT22;38455;52.710;6.502;2024-01-25T02:34:02;5.50;99.90
52555;DHT22;38455;52.710;6.502;2024-01-25T02:36:27;5.50;99.90
52555;DHT22;38455;52.710;6.502;2024-01-25T02:38:53;5.40;99.90
52555;DHT22;38455;52.710;6.502;2024-01-25T02:41:18;5.40;99.90
52555;DHT22;38455;52.710;6.502;2024-01-25T02:43:44;5.40;99.90
52555;DHT22;38455;52.710;6.502;2024-01-25T02:46:10;5.40;99.90
52555;DHT22;38455;52.710;6.502;2024-01-25T02:48:35;5.40;99.90
52555;DHT22;38455;52.710;6.502;2024-01-25T02:51:01;5.30;99.90
52555;DHT22;38455;52.710;6.502;2024-01-25T02:53:27;5.30;99.90
52555;DHT22;38455;52.710;6.502;2024-01-25T02:55:52;5.30;99.90
52555;DHT22;38455;52.710;6.502;2024-01-25T02:58:18;5.20;99.90
52555;DHT22;38455;52.710;6.502;2024-01-25T03:00:43;5.30;99.90
52555;DHT22;38455;52.710;6.502;2024-01-25T03:03:09;5.20;99.90
52555;DHT22;38455;52.710;6.502;2024-01-25T03:05:35;5.20;99.90
52555;DHT22;38455;52.710;6.502;2024-01-25T03:08:01;5.20;99.90
52555;DHT22;38455;52.710;6.502;2024-01-25T03:10:26;5.20;99.90
52555;DHT22;38455;52.710;6.502;2024-01-25T03:12:52;5.20;99.90
52555;DHT22;38455;52.710;6.502;2024-01-25T03:15:18;5.20;99.90
52555;DHT22;38455;52.710;6.502;2024-01-25T03:17:43;5.10;99.90
52555;DHT22;38455;52.710;6.502;2024-01-25T03:20:09;5.10;99.90
52555;DHT22;38455;52.710;6.502;2024-01-25T03:22:35;5.10;99.90
52555;DHT22;38455;52.710;6.502;2024-01-25T03:25:01;5.00;99.90
52555;DHT22;38455;52.710;6.502;2024-01-25T03:27:27;5.00;99.90
52555;DHT22;38455;52.710;6.502;2024-01-25T03:29:52;5.00;99.90
52555;DHT22;38455;52.710;6.502;2024-01-25T03:32:18;4.90;99.90
52555;DHT22;38455;52.710;6.502;2024-01-25T03:34:43;4.90;99.90
52555;DHT22;38455;52.710;6.502;2024-01-25T03:37:10;4.90;99.90
52555;DHT22;38455;52.710;6.502;2024-01-25T03:39:36;4.80;99.90
52555;DHT22;38455;52.710;6.502;2024-01-25T03:42:01;4.80;99.90
52555;DHT22;38455;52.710;6.502;2024-01-25T03:44:27;4.80;99.90
52555;DHT22;38455;52.710;6.502;2024-01-25T03:46:53;4.70;99.90
52555;DHT22;38455;52.710;6.502;2024-01-25T03:49:18;4.70;99.90
52555;DHT22;38455;52.710;6.502;2024-01-25T03:51:45;4.60;99.90
52555;DHT22;38455;52.710;6.502;2024-01-25T03:54:10;4.60;99.90
52555;DHT22;38455;52.710;6.502;2024-01-25T03:56:36;4.60;99.90
52555;DHT22;38455;52.710;6.502;2024-01-25T03:59:01;4.50;99.90
52555;DHT22;38455;52.710;6.502;2024-01-25T04:01:27;4.50;99.90
52555;DHT22;38455;52.710;6.502;2024-01-25T04:03:53;4.50;99.90
52555;DHT22;38455;52.710;6.502;2024-01-25T04:06:18;4.40;99.90
52555;DHT22;38455;52.710;6.502;2024-01-25T04:08:45;4.40;99.90
52555;DHT22;38455;52.710;6.502;2024-01-25T04:11:10;4.40;99.90
52555;DHT22;38455;52.710;6.502;2024-01-25T04:13:36;4.40;99.90
52555;DHT22;38455;52.710;6.502;2024-01-25T04:16:02;4.40;99.90
52555;DHT22;38455;52.710;6.502;2024-01-25T04:18:27;4.30;99.90
52555;DHT22;38455;52.710;6.502;2024-01-25T04:20:53;4.30;99.90
52555;DHT22;38455;52.710;6.502;2024-01-25T04:23:18;4.30;99.90
52555;DHT22;38455;52.710;6.502;2024-01-25T04:25:44;4.30;99.90
52555;DHT22;38455;52.710;6.502;2024-01-25T04:28:10;4.30;99.90
52555;DHT22;38455;52.710;6.502;2024-01-25T04:30:35;4.30;99.90
52555;DHT22;38455;52.710;6.502;2024-01-25T04:33:02;4.30;99.90
52555;DHT22;38455;52.710;6.502;2024-01-25T04:35:28;4.30;99.90
52555;DHT22;38455;52.710;6.502;2024-01-25T04:37:53;4.30;99.90
52555;DHT22;38455;52.710;6.502;2024-01-25T04:40:19;4.30;99.90
52555;DHT22;38455;52.710;6.502;2024-01-25T04:42:45;4.20;99.90
52555;DHT22;38455;52.710;6.502;2024-01-25T04:45:11;4.20;99.90
52555;DHT22;38455;52.710;6.502;2024-01-25T04:47:38;4.20;99.90
52555;DHT22;38455;52.710;6.502;2024-01-25T04:50:04;4.20;99.90
52555;DHT22;38455;52.710;6.502;2024-01-25T04:52:30;4.10;99.90
52555;DHT22;38455;52.710;6.502;2024-01-25T04:54:56;4.10;99.90
52555;DHT22;38455;52.710;6.502;2024-01-25T04:57:21;4.00;99.90
52555;DHT22;38455;52.710;6.502;2024-01-25T04:59:47;4.00;99.90
52555;DHT22;38455;52.710;6.502;2024-01-25T05:02:12;4.00;99.90
52555;DHT22;38455;52.710;6.502;2024-01-25T05:04:38;3.90;99.90
52555;DHT22;38455;52.710;6.502;2024-01-25T05:07:04;4.00;99.90
52555;DHT22;38455;52.710;6.502;2024-01-25T05:09:30;4.00;99.90
52555;DHT22;38455;52.710;6.502;2024-01-25T05:11:55;4.00;99.90
52555;DHT22;38455;52.710;6.502;2024-01-25T05:14:24;4.00;99.90
52555;DHT22;38455;52.710;6.502;2024-01-25T05:16:50;4.00;99.90
52555;DHT22;38455;52.710;6.502;2024-01-25T05:19:16;4.00;99.90
52555;DHT22;38455;52.710;6.502;2024-01-25T05:21:42;3.90;99.90
52555;DHT22;38455;52.710;6.502;2024-01-25T05:24:07;3.90;99.90
52555;DHT22;38455;52.710;6.502;2024-01-25T05:26:35;3.90;99.90
52555;DHT22;38455;52.710;6.502;2024-01-25T05:29:01;3.90;99.90
52555;DHT22;38455;52.710;6.502;2024-01-25T05:31:26;3.90;99.90
52555;DHT22;38455;52.710;6.502;2024-01-25T05:33:52;3.90;99.90
52555;DHT22;38455;52.710;6.502;2024-01-25T05:36:17;3.80;99.90
52555;DHT22;38455;52.710;6.502;2024-01-25T05:38:43;3.90;99.90
52555;DHT22;38455;52.710;6.502;2024-01-25T05:41:09;3.90;99.90
52555;DHT22;38455;52.710;6.502;2024-01-25T05:43:34;4.00;99.90
52555;DHT22;38455;52.710;6.502;2024-01-25T05:46:00;4.00;99.90
52555;DHT22;38455;52.710;6.502;2024-01-25T05:48:26;4.10;99.90
52555;DHT22;38455;52.710;6.502;2024-01-25T05:50:51;4.00;99.90
52555;DHT22;38455;52.710;6.502;2024-01-25T05:53:17;4.00;99.90
52555;DHT22;38455;52.710;6.502;2024-01-25T05:55:45;3.90;99.90
52555;DHT22;38455;52.710;6.502;2024-01-25T05:58:11;3.90;99.90
52555;DHT22;38455;52.710;6.502;2024-01-25T06:00:36;3.80;99.90
52555;DHT22;38455;52.710;6.502;2024-01-25T06:03:02;3.80;99.90
52555;DHT22;38455;52.710;6.502;2024-01-25T06:05:28;3.70;99.90
52555;DHT22;38455;52.710;6.502;2024-01-25T06:07:53;3.70;99.90
52555;DHT22;38455;52.710;6.502;2024-01-25T06:10:19;3.60;99.90
52555;DHT22;38455;52.710;6.502;2024-01-25T06:12:44;3.60;99.90
52555;DHT22;38455;52.710;6.502;2024-01-25T06:15:10;3.60;99.90
52555;DHT22;38455;52.710;6.502;2024-01-25T06:17:36;3.60;99.90
52555;DHT22;38455;52.710;6.502;2024-01-25T06:20:02;3.50;99.90
52555;DHT22;38455;52.710;6.502;2024-01-25T06:22:28;3.50;99.90
52555;DHT22;38455;52.710;6.502;2024-01-25T06:24:53;3.50;99.90
52555;DHT22;38455;52.710;6.502;2024-01-25T06:27:19;3.50;99.90
52555;DHT22;38455;52.710;6.502;2024-01-25T06:29:44;3.50;99.90
52555;DHT22;38455;52.710;6.502;2024-01-25T06:32:10;3.50;99.90
52555;DHT22;38455;52.710;6.502;2024-01-25T06:34:36;3.50;99.90
52555;DHT22;38455;52.710;6.502;2024-01-25T06:37:02;3.40;99.90
52555;DHT22;38455;52.710;6.502;2024-01-25T06:39:27;3.40;99.90
52555;DHT22;38455;52.710;6.502;2024-01-25T06:41:53;3.40;99.90
52555;DHT22;38455;52.710;6.502;2024-01-25T06:44:19;3.30;99.90
52555;DHT22;38455;52.710;6.502;2024-01-25T06:46:45;3.30;99.90
52555;DHT22;38455;52.710;6.502;2024-01-25T06:49:11;3.30;99.90
52555;DHT22;38455;52.710;6.502;2024-01-25T06:51:37;3.20;99.90
52555;DHT22;38455;52.710;6.502;2024-01-25T06:54:02;3.20;99.90
52555;DHT22;38455;52.710;6.502;2024-01-25T06:56:28;3.10;99.90
52555;DHT22;38455;52.710;6.502;2024-01-25T06:58:54;3.10;99.90
52555;DHT22;38455;52.710;6.502;2024-01-25T07:01:20;3.10;99.90
52555;DHT22;38455;52.710;6.502;2024-01-25T07:03:47;3.10;99.90
52555;DHT22;38455;52.710;6.502;2024-01-25T07:06:13;3.20;99.90
52555;DHT22;38455;52.710;6.502;2024-01-25T07:08:39;3.20;99.90
52555;DHT22;38455;52.710;6.502;2024-01-25T07:11:04;3.20;99.90
52555;DHT22;38455;52.710;6.502;2024-01-25T07:13:30;3.30;99.90
52555;DHT22;38455;52.710;6.502;2024-01-25T07:15:55;3.30;99.90
52555;DHT22;38455;52.710;6.502;2024-01-25T07:18:21;3.40;99.90
52555;DHT22;38455;52.710;6.502;2024-01-25T07:20:48;3.40;99.90
52555;DHT22;38455;52.710;6.502;2024-01-25T07:23:13;3.40;99.90
52555;DHT22;38455;52.710;6.502;2024-01-25T07:25:39;3.40;99.90
52555;DHT22;38455;52.710;6.502;2024-01-25T07:30:35;3.50;99.90
52555;DHT22;38455;52.710;6.502;2024-01-25T07:33:00;3.50;99.90
52555;DHT22;38455;52.710;6.502;2024-01-25T07:35:27;3.50;99.90
52555;DHT22;38455;52.710;6.502;2024-01-25T07:37:52;3.50;99.90
52555;DHT22;38455;52.710;6.502;2024-01-25T07:40:18;3.60;99.90
52555;DHT22;38455;52.710;6.502;2024-01-25T07:42:44;3.60;99.90
52555;DHT22;38455;52.710;6.502;2024-01-25T07:45:12;3.60;99.90
52555;DHT22;38455;52.710;6.502;2024-01-25T07:47:41;3.70;99.90
52555;DHT22;38455;52.710;6.502;2024-01-25T07:50:07;3.70;99.90
52555;DHT22;38455;52.710;6.502;2024-01-25T07:52:33;3.80;99.90
52555;DHT22;38455;52.710;6.502;2024-01-25T07:54:59;3.80;99.90
52555;DHT22;38455;52.710;6.502;2024-01-25T07:57:25;3.90;99.90
52555;DHT22;38455;52.710;6.502;2024-01-25T07:59:50;3.90;99.90
52555;DHT22;38455;52.710;6.502;2024-01-25T08:02:17;4.00;99.90
52555;DHT22;38455;52.710;6.502;2024-01-25T08:04:43;4.00;99.90
52555;DHT22;38455;52.710;6.502;2024-01-25T08:07:08;4.10;99.90
52555;DHT22;38455;52.710;6.502;2024-01-25T08:09:34;4.10;99.90
52555;DHT22;38455;52.710;6.502;2024-01-25T08:12:00;4.20;99.90
52555;DHT22;38455;52.710;6.502;2024-01-25T08:14:26;4.20;99.90
52555;DHT22;38455;52.710;6.502;2024-01-25T08:16:52;4.30;99.90
52555;DHT22;38455;52.710;6.502;2024-01-25T08:19:17;4.40;99.90
52555;DHT22;38455;52.710;6.502;2024-01-25T08:21:43;4.40;99.90
52555;DHT22;38455;52.710;6.502;2024-01-25T08:24:09;4.40;99.90
52555;DHT22;38455;52.710;6.502;2024-01-25T08:26:34;4.40;99.90
52555;DHT22;38455;52.710;6.502;2024-01-25T08:29:00;4.50;99.90
52555;DHT22;38455;52.710;6.502;2024-01-25T08:31:26;4.60;99.90
52555;DHT22;38455;52.710;6.502;2024-01-25T08:33:53;4.60;99.90
52555;DHT22;38455;52.710;6.502;2024-01-25T08:36:19;4.70;99.90
52555;DHT22;38455;52.710;6.502;2024-01-25T08:38:45;4.70;99.90
52555;DHT22;38455;52.710;6.502;2024-01-25T08:41:12;4.70;99.90
52555;DHT22;38455;52.710;6.502;2024-01-25T08:43:39;4.80;99.90
52555;DHT22;38455;52.710;6.502;2024-01-25T08:46:05;4.80;99.90
52555;DHT22;38455;52.710;6.502;2024-01-25T08:48:31;5.00;99.90
52555;DHT22;38455;52.710;6.502;2024-01-25T08:50:57;5.00;99.90
52555;DHT22;38455;52.710;6.502;2024-01-25T08:53:23;5.10;99.90
52555;DHT22;38455;52.710;6.502;2024-01-25T08:55:53;5.20;99.90
52555;DHT22;38455;52.710;6.502;2024-01-25T08:58:19;5.30;99.90
52555;DHT22;38455;52.710;6.502;2024-01-25T09:00:45;5.30;99.90
52555;DHT22;38455;52.710;6.502;2024-01-25T09:03:11;5.50;99.90
52555;DHT22;38455;52.710;6.502;2024-01-25T09:05:36;5.50;99.90
52555;DHT22;38455;52.710;6.502;2024-01-25T09:08:07;5.60;99.90
52555;DHT22;38455;52.710;6.502;2024-01-25T09:10:32;5.60;99.90
52555;DHT22;38455;52.710;6.502;2024-01-25T09:12:58;5.60;99.90
52555;DHT22;38455;52.710;6.502;2024-01-25T09:15:24;5.70;99.90
52555;DHT22;38455;52.710;6.502;2024-01-25T09:17:50;5.80;99.90
52555;DHT22;38455;52.710;6.502;2024-01-25T09:20:16;5.80;99.90
52555;DHT22;38455;52.710;6.502;2024-01-25T09:22:42;5.90;99.90
52555;DHT22;38455;52.710;6.502;2024-01-25T09:25:08;6.10;99.90
52555;DHT22;38455;52.710;6.502;2024-01-25T09:27:34;6.20;99.90
52555;DHT22;38455;52.710;6.502;2024-01-25T09:30:00;6.20;99.90
52555;DHT22;38455;52.710;6.502;2024-01-25T09:32:26;6.30;99.90
52555;DHT22;38455;52.710;6.502;2024-01-25T09:34:51;6.40;99.90
52555;DHT22;38455;52.710;6.502;2024-01-25T09:37:17;6.40;99.90
52555;DHT22;38455;52.710;6.502;2024-01-25T09:39:45;6.40;99.90
52555;DHT22;38455;52.710;6.502;2024-01-25T09:42:10;6.50;99.90
52555;DHT22;38455;52.710;6.502;2024-01-25T09:44:38;6.50;99.90
52555;DHT22;38455;52.710;6.502;2024-01-25T09:47:05;6.60;99.90
52555;DHT22;38455;52.710;6.502;2024-01-25T09:49:33;6.60;99.90
52555;DHT22;38455;52.710;6.502;2024-01-25T09:52:01;6.60;99.90
52555;DHT22;38455;52.710;6.502;2024-01-25T09:54:34;6.70;99.90
52555;DHT22;38455;52.710;6.502;2024-01-25T09:57:24;6.70;99.90
52555;DHT22;38455;52.710;6.502;2024-01-25T09:59:48;6.70;99.90
52555;DHT22;38455;52.710;6.502;2024-01-25T10:02:16;6.80;99.90
52555;DHT22;38455;52.710;6.502;2024-01-25T10:04:41;6.90;99.90
52555;DHT22;38455;52.710;6.502;2024-01-25T10:07:07;6.90;99.90
52555;DHT22;38455;52.710;6.502;2024-01-25T10:09:40;7.00;99.90
52555;DHT22;38455;52.710;6.502;2024-01-25T10:12:06;7.10;99.90
52555;DHT22;38455;52.710;6.502;2024-01-25T10:14:32;7.20;99.90
52555;DHT22;38455;52.710;6.502;2024-01-25T10:16:58;7.40;99.90
52555;DHT22;38455;52.710;6.502;2024-01-25T10:19:25;7.50;99.90
52555;DHT22;38455;52.710;6.502;2024-01-25T10:21:51;7.60;99.90
52555;DHT22;38455;52.710;6.502;2024-01-25T10:24:16;7.80;99.90
52555;DHT22;38455;52.710;6.502;2024-01-25T10:26:43;7.90;99.90
52555;DHT22;38455;52.710;6.502;2024-01-25T10:29:09;8.10;99.90
52555;DHT22;38455;52.710;6.502;2024-01-25T10:31:39;8.20;99.90
52555;DHT22;38455;52.710;6.502;2024-01-25T10:34:11;8.40;99.90
52555;DHT22;38455;52.710;6.502;2024-01-25T10:36:39;8.60;99.90
52555;DHT22;38455;52.710;6.502;2024-01-25T10:39:07;8.70;99.90
52555;DHT22;38455;52.710;6.502;2024-01-25T10:41:34;8.80;99.90
52555;DHT22;38455;52.710;6.502;2024-01-25T10:44:00;8.80;99.90
52555;DHT22;38455;52.710;6.502;2024-01-25T10:46:29;9.00;99.90
52555;DHT22;38455;52.710;6.502;2024-01-25T10:48:58;9.40;99.90
52555;DHT22;38455;52.710;6.502;2024-01-25T10:51:27;9.80;99.90
52555;DHT22;38455;52.710;6.502;2024-01-25T10:53:54;10.20;99.90
52555;DHT22;38455;52.710;6.502;2024-01-25T10:56:20;10.70;99.90
52555;DHT22;38455;52.710;6.502;2024-01-25T10:58:46;11.20;99.90
52555;DHT22;38455;52.710;6.502;2024-01-25T11:01:12;11.70;99.90
52555;DHT22;38455;52.710;6.502;2024-01-25T11:03:39;12.00;99.90
52555;DHT22;38455;52.710;6.502;2024-01-25T11:06:07;12.40;99.90
52555;DHT22;38455;52.710;6.502;2024-01-25T11:08:41;12.80;99.90
52555;DHT22;38455;52.710;6.502;2024-01-25T11:11:13;12.70;99.90
52555;DHT22;38455;52.710;6.502;2024-01-25T11:13:43;12.60;99.90
52555;DHT22;38455;52.710;6.502;2024-01-25T11:16:16;12.40;99.90
52555;DHT22;38455;52.710;6.502;2024-01-25T11:18:54;12.80;99.90
52555;DHT22;38455;52.710;6.502;2024-01-25T11:21:41;13.20;99.90
52555;DHT22;38455;52.710;6.502;2024-01-25T11:24:20;13.30;99.90
52555;DHT22;38455;52.710;6.502;2024-01-25T11:26:47;13.50;99.90
52555;DHT22;38455;52.710;6.502;2024-01-25T11:29:14;13.90;99.90
52555;DHT22;38455;52.710;6.502;2024-01-25T11:31:45;14.10;99.90
52555;DHT22;38455;52.710;6.502;2024-01-25T11:34:12;14.40;99.90
52555;DHT22;38455;52.710;6.502;2024-01-25T11:36:39;14.70;99.90
52555;DHT22;38455;52.710;6.502;2024-01-25T11:39:04;15.10;99.90
52555;DHT22;38455;52.710;6.502;2024-01-25T11:41:31;14.70;99.90
52555;DHT22;38455;52.710;6.502;2024-01-25T11:43:57;14.00;99.90
52555;DHT22;38455;52.710;6.502;2024-01-25T11:46:23;13.40;99.90
52555;DHT22;38455;52.710;6.502;2024-01-25T11:48:50;13.70;99.90
52555;DHT22;38455;52.710;6.502;2024-01-25T11:51:16;13.00;99.90
52555;DHT22;38455;52.710;6.502;2024-01-25T11:53:42;12.80;99.90
52555;DHT22;38455;52.710;6.502;2024-01-25T11:56:12;12.30;99.90
52555;DHT22;38455;52.710;6.502;2024-01-25T11:58:39;11.90;99.90
52555;DHT22;38455;52.710;6.502;2024-01-25T12:01:06;11.60;99.90
52555;DHT22;38455;52.710;6.502;2024-01-25T12:03:35;11.30;99.90
52555;DHT22;38455;52.710;6.502;2024-01-25T12:06:03;11.10;99.90
52555;DHT22;38455;52.710;6.502;2024-01-25T12:08:32;11.20;99.90
52555;DHT22;38455;52.710;6.502;2024-01-25T12:11:09;11.20;99.90
52555;DHT22;38455;52.710;6.502;2024-01-25T12:13:35;11.40;99.90
52555;DHT22;38455;52.710;6.502;2024-01-25T12:16:05;11.30;99.90
52555;DHT22;38455;52.710;6.502;2024-01-25T12:18:33;11.10;99.90
52555;DHT22;38455;52.710;6.502;2024-01-25T12:21:02;10.90;99.90
52555;DHT22;38455;52.710;6.502;2024-01-25T12:23:38;10.70;99.90
52555;DHT22;38455;52.710;6.502;2024-01-25T12:26:08;10.40;99.90
52555;DHT22;38455;52.710;6.502;2024-01-25T12:28:35;10.20;99.90
52555;DHT22;38455;52.710;6.502;2024-01-25T12:31:05;10.00;99.90
52555;DHT22;38455;52.710;6.502;2024-01-25T12:33:32;10.00;99.90
52555;DHT22;38455;52.710;6.502;2024-01-25T12:35:58;10.00;99.90
52555;DHT22;38455;52.710;6.502;2024-01-25T12:38:24;9.90;99.90
52555;DHT22;38455;52.710;6.502;2024-01-25T12:40:52;10.00;99.90
52555;DHT22;38455;52.710;6.502;2024-01-25T12:43:18;10.00;99.90
52555;DHT22;38455;52.710;6.502;2024-01-25T12:45:44;10.00;99.90
52555;DHT22;38455;52.710;6.502;2024-01-25T12:48:11;10.10;99.90
52555;DHT22;38455;52.710;6.502;2024-01-25T12:50:37;10.20;99.90
52555;DHT22;38455;52.710;6.502;2024-01-25T12:53:03;10.50;99.90
52555;DHT22;38455;52.710;6.502;2024-01-25T12:55:30;10.50;99.90
52555;DHT22;38455;52.710;6.502;2024-01-25T12:57:59;10.50;99.90
52555;DHT22;38455;52.710;6.502;2024-01-25T13:00:25;10.50;99.90
52555;DHT22;38455;52.710;6.502;2024-01-25T13:02:51;10.60;99.90
52555;DHT22;38455;52.710;6.502;2024-01-25T13:05:19;10.60;99.90
52555;DHT22;38455;52.710;6.502;2024-01-25T13:07:44;10.60;99.90
52555;DHT22;38455;52.710;6.502;2024-01-25T13:10:10;10.60;99.90
52555;DHT22;38455;52.710;6.502;2024-01-25T13:12:39;10.50;99.90
52555;DHT22;38455;52.710;6.502;2024-01-25T13:15:07;10.40;99.90
52555;DHT22;38455;52.710;6.502;2024-01-25T13:17:37;10.30;99.90
52555;DHT22;38455;52.710;6.502;2024-01-25T13:20:03;10.30;99.90
52555;DHT22;38455;52.710;6.502;2024-01-25T13:22:31;10.30;99.90
52555;DHT22;38455;52.710;6.502;2024-01-25T13:24:59;10.10;99.90
52555;DHT22;38455;52.710;6.502;2024-01-25T13:27:25;10.10;99.90
52555;DHT22;38455;52.710;6.502;2024-01-25T13:29:51;10.00;99.90
52555;DHT22;38455;52.710;6.502;2024-01-25T13:32:16;9.80;99.90
52555;DHT22;38455;52.710;6.502;2024-01-25T13:34:42;9.80;99.90
52555;DHT22;38455;52.710;6.502;2024-01-25T13:37:08;9.70;99.90
52555;DHT22;38455;52.710;6.502;2024-01-25T13:39:33;9.70;99.90
52555;DHT22;38455;52.710;6.502;2024-01-25T13:41:59;9.60;99.90
52555;DHT22;38455;52.710;6.502;2024-01-25T13:44:25;9.60;99.90
52555;DHT22;38455;52.710;6.502;2024-01-25T13:46:50;9.50;99.90
52555;DHT22;38455;52.710;6.502;2024-01-25T13:49:16;9.50;99.90
52555;DHT22;38455;52.710;6.502;2024-01-25T13:51:44;9.50;99.90
52555;DHT22;38455;52.710;6.502;2024-01-25T13:54:10;9.40;99.90
52555;DHT22;38455;52.710;6.502;2024-01-25T13:56:35;9.40;99.90
52555;DHT22;38455;52.710;6.502;2024-01-25T13:59:01;9.50;99.90
52555;DHT22;38455;52.710;6.502;2024-01-25T14:01:27;9.50;99.90
52555;DHT22;38455;52.710;6.502;2024-01-25T14:03:52;9.50;99.90
52555;DHT22;38455;52.710;6.502;2024-01-25T14:06:18;9.50;99.90
52555;DHT22;38455;52.710;6.502;2024-01-25T14:08:44;9.50;99.90
52555;DHT22;38455;52.710;6.502;2024-01-25T14:11:10;9.50;99.90
52555;DHT22;38455;52.710;6.502;2024-01-25T14:13:36;9.40;99.90
52555;DHT22;38455;52.710;6.502;2024-01-25T14:16:01;9.30;99.90
52555;DHT22;38455;52.710;6.502;2024-01-25T14:18:28;9.30;99.90
52555;DHT22;38455;52.710;6.502;2024-01-25T14:20:56;9.20;99.90
52555;DHT22;38455;52.710;6.502;2024-01-25T14:23:22;9.10;99.90
52555;DHT22;38455;52.710;6.502;2024-01-25T14:25:47;9.00;99.90
52555;DHT22;38455;52.710;6.502;2024-01-25T14:28:13;8.90;99.90
52555;DHT22;38455;52.710;6.502;2024-01-25T14:30:39;8.80;99.90
52555;DHT22;38455;52.710;6.502;2024-01-25T14:33:04;8.80;99.90
52555;DHT22;38455;52.710;6.502;2024-01-25T14:35:30;8.70;99.90
52555;DHT22;38455;52.710;6.502;2024-01-25T14:37:56;8.60;99.90
52555;DHT22;38455;52.710;6.502;2024-01-25T14:40:24;8.60;99.90
52555;DHT22;38455;52.710;6.502;2024-01-25T14:42:51;8.60;99.90
52555;DHT22;38455;52.710;6.502;2024-01-25T14:45:17;8.50;99.90
52555;DHT22;38455;52.710;6.502;2024-01-25T14:47:43;8.50;99.90
52555;DHT22;38455;52.710;6.502;2024-01-25T14:50:08;8.50;99.90
52555;DHT22;38455;52.710;6.502;2024-01-25T14:52:36;8.50;99.90
52555;DHT22;38455;52.710;6.502;2024-01-25T14:55:01;8.50;99.90
52555;DHT22;38455;52.710;6.502;2024-01-25T14:57:27;8.50;99.90
52555;DHT22;38455;52.710;6.502;2024-01-25T14:59:53;8.50;99.90
52555;DHT22;38455;52.710;6.502;2024-01-25T15:02:18;8.50;99.90
52555;DHT22;38455;52.710;6.502;2024-01-25T15:04:44;8.50;99.90
52555;DHT22;38455;52.710;6.502;2024-01-25T15:07:10;8.50;99.90
52555;DHT22;38455;52.710;6.502;2024-01-25T15:09:36;8.50;99.90
52555;DHT22;38455;52.710;6.502;2024-01-25T15:12:01;8.50;99.90
52555;DHT22;38455;52.710;6.502;2024-01-25T15:14:27;8.50;99.90
52555;DHT22;38455;52.710;6.502;2024-01-25T15:16:53;8.50;99.90
52555;DHT22;38455;52.710;6.502;2024-01-25T15:19:19;8.50;99.90
52555;DHT22;38455;52.710;6.502;2024-01-25T15:21:45;8.50;99.90
52555;DHT22;38455;52.710;6.502;2024-01-25T15:24:11;8.50;99.90
52555;DHT22;38455;52.710;6.502;2024-01-25T15:26:43;8.50;99.90
52555;DHT22;38455;52.710;6.502;2024-01-25T15:29:09;8.50;99.90
52555;DHT22;38455;52.710;6.502;2024-01-25T15:31:35;8.40;99.90
52555;DHT22;38455;52.710;6.502;2024-01-25T15:34:02;8.40;99.90
52555;DHT22;38455;52.710;6.502;2024-01-25T15:36:28;8.40;99.90
52555;DHT22;38455;52.710;6.502;2024-01-25T15:38:54;8.40;99.90